sensor_id;sensor_type;location;lat;lon;timestamp;P1;durP1;ratioP1;P2;durP2;ratioP2
14125;SDS011;7141;49.484;11.242;2022-08-25T00:01:39;12.57;;;10.80;;
14125;SDS011;7141;49.484;11.242;2022-08-25T00:04:08;13.33;;;11.00;;
14125;SDS011;7141;49.484;11.242;2022-08-25T00:06:35;13.00;;;11.60;;
14125;SDS011;7141;49.484;11.242;2022-08-25T00:09:01;14.33;;;11.47;;
14125;SDS011;7141;49.484;11.242;2022-08-25T00:11:28;16.23;;;11.10;;
14125;SDS011;7141;49.484;11.242;2022-08-25T00:13:59;12.90;;;10.97;;
14125;SDS011;7141;49.484;11.242;2022-08-25T00:16:26;19.07;;;10.83;;
14125;SDS011;7141;49.484;11.242;2022-08-25T00:18:56;12.53;;;11.23;;
14125;SDS011;7141;49.484;11.242;2022-08-25T00:21:22;14.37;;;12.23;;
14125;SDS011;7141;49.484;11.242;2022-08-25T00:23:48;12.47;;;11.17;;
14125;SDS011;7141;49.484;11.242;2022-08-25T00:26:15;17.37;;;11.37;;
14125;SDS011;7141;49.484;11.242;2022-08-25T00:28:41;14.30;;;12.73;;
14125;SDS011;7141;49.484;11.242;2022-08-25T00:31:10;14.80;;;11.83;;
14125;SDS011;7141;49.484;11.242;2022-08-25T00:33:36;15.43;;;12.37;;
14125;SDS011;7141;49.484;11.242;2022-08-25T00:36:02;15.30;;;12.70;;
14125;SDS011;7141;49.484;11.242;2022-08-25T00:38:28;12.97;;;11.57;;
14125;SDS011;7141;49.484;11.242;2022-08-25T00:40:55;16.50;;;12.30;;
14125;SDS011;7141;49.484;11.242;2022-08-25T00:45:59;13.03;;;11.67;;
14125;SDS011;7141;49.484;11.242;2022-08-25T00:48:26;15.10;;;11.80;;
14125;SDS011;7141;49.484;11.242;2022-08-25T00:50:52;14.97;;;12.33;;
14125;SDS011;7141;49.484;11.242;2022-08-25T00:53:18;16.47;;;11.93;;
14125;SDS011;7141;49.484;11.242;2022-08-25T00:55:45;13.27;;;11.97;;
14125;SDS011;7141;49.484;11.242;2022-08-25T00:58:12;17.07;;;12.47;;
14125;SDS011;7141;49.484;11.242;2022-08-25T01:00:43;13.13;;;11.73;;
14125;SDS011;7141;49.484;11.242;2022-08-25T01:03:09;14.50;;;12.50;;
14125;SDS011;7141;49.484;11.242;2022-08-25T01:05:36;17.47;;;13.00;;
14125;SDS011;7141;49.484;11.242;2022-08-25T01:08:02;12.97;;;11.67;;
14125;SDS011;7141;49.484;11.242;2022-08-25T01:10:30;15.80;;;12.63;;
14125;SDS011;7141;49.484;11.242;2022-08-25T01:12:59;14.50;;;13.10;;
14125;SDS011;7141;49.484;11.242;2022-08-25T01:15:26;16.00;;;12.83;;
14125;SDS011;7141;49.484;11.242;2022-08-25T01:17:53;14.60;;;13.10;;
14125;SDS011;7141;49.484;11.242;2022-08-25T01:20:22;15.80;;;13.10;;
14125;SDS011;7141;49.484;11.242;2022-08-25T01:22:49;15.60;;;12.67;;
14125;SDS011;7141;49.484;11.242;2022-08-25T01:27:44;18.70;;;13.97;;
14125;SDS011;7141;49.484;11.242;2022-08-25T01:30:10;14.07;;;12.60;;
14125;SDS011;7141;49.484;11.242;2022-08-25T01:32:36;16.07;;;13.30;;
14125;SDS011;7141;49.484;11.242;2022-08-25T01:35:02;16.40;;;13.60;;
14125;SDS011;7141;49.484;11.242;2022-08-25T01:37:28;14.77;;;13.27;;
14125;SDS011;7141;49.484;11.242;2022-08-25T01:39:55;16.30;;;14.60;;
14125;SDS011;7141;49.484;11.242;2022-08-25T01:44:50;16.67;;;14.27;;
14125;SDS011;7141;49.484;11.242;2022-08-25T01:47:16;16.43;;;14.10;;
14125;SDS011;7141;49.484;11.242;2022-08-25T01:49:42;17.80;;;13.83;;
14125;SDS011;7141;49.484;11.242;2022-08-25T01:54:49;15.83;;;13.57;;
14125;SDS011;7141;49.484;11.242;2022-08-25T01:57:15;17.57;;;13.93;;
14125;SDS011;7141;49.484;11.242;2022-08-25T01:59:41;14.83;;;13.30;;
14125;SDS011;7141;49.484;11.242;2022-08-25T02:02:08;17.80;;;14.57;;
14125;SDS011;7141;49.484;11.242;2022-08-25T02:04:34;16.13;;;14.43;;
14125;SDS011;7141;49.484;11.242;2022-08-25T02:07:02;19.77;;;14.23;;
14125;SDS011;7141;49.484;11.242;2022-08-25T02:09:28;17.00;;;14.47;;
14125;SDS011;7141;49.484;11.242;2022-08-25T02:11:54;18.97;;;15.00;;
14125;SDS011;7141;49.484;11.242;2022-08-25T02:14:20;18.97;;;14.80;;
14125;SDS011;7141;49.484;11.242;2022-08-25T02:16:48;17.70;;;14.37;;
14125;SDS011;7141;49.484;11.242;2022-08-25T02:19:15;20.50;;;15.17;;
14125;SDS011;7141;49.484;11.242;2022-08-25T02:21:41;17.03;;;15.23;;
14125;SDS011;7141;49.484;11.242;2022-08-25T02:24:07;16.93;;;14.67;;
14125;SDS011;7141;49.484;11.242;2022-08-25T02:26:34;18.63;;;15.43;;
14125;SDS011;7141;49.484;11.242;2022-08-25T02:29:00;20.47;;;16.33;;
14125;SDS011;7141;49.484;11.242;2022-08-25T02:31:27;16.57;;;14.87;;
14125;SDS011;7141;49.484;11.242;2022-08-25T02:33:53;21.07;;;15.57;;
14125;SDS011;7141;49.484;11.242;2022-08-25T02:36:19;20.13;;;16.63;;
14125;SDS011;7141;49.484;11.242;2022-08-25T02:38:45;21.67;;;17.10;;
14125;SDS011;7141;49.484;11.242;2022-08-25T02:41:13;19.50;;;16.50;;
14125;SDS011;7141;49.484;11.242;2022-08-25T02:43:41;17.17;;;15.33;;
14125;SDS011;7141;49.484;11.242;2022-08-25T02:46:08;20.30;;;16.17;;
14125;SDS011;7141;49.484;11.242;2022-08-25T02:48:35;19.33;;;15.90;;
14125;SDS011;7141;49.484;11.242;2022-08-25T02:51:01;17.80;;;15.70;;
14125;SDS011;7141;49.484;11.242;2022-08-25T02:53:28;20.23;;;15.43;;
14125;SDS011;7141;49.484;11.242;2022-08-25T02:55:54;18.93;;;16.47;;
14125;SDS011;7141;49.484;11.242;2022-08-25T02:58:20;18.20;;;16.13;;
14125;SDS011;7141;49.484;11.242;2022-08-25T03:00:47;19.23;;;16.43;;
14125;SDS011;7141;49.484;11.242;2022-08-25T03:03:15;18.97;;;16.03;;
14125;SDS011;7141;49.484;11.242;2022-08-25T03:05:42;19.40;;;16.53;;
14125;SDS011;7141;49.484;11.242;2022-08-25T03:08:08;17.63;;;15.80;;
14125;SDS011;7141;49.484;11.242;2022-08-25T03:10:34;19.83;;;16.67;;
14125;SDS011;7141;49.484;11.242;2022-08-25T03:13:01;20.60;;;15.63;;
14125;SDS011;7141;49.484;11.242;2022-08-25T03:15:27;19.40;;;16.10;;
14125;SDS011;7141;49.484;11.242;2022-08-25T03:17:53;20.47;;;16.97;;
14125;SDS011;7141;49.484;11.242;2022-08-25T03:20:20;19.30;;;15.27;;
14125;SDS011;7141;49.484;11.242;2022-08-25T03:22:47;21.60;;;16.97;;
14125;SDS011;7141;49.484;11.242;2022-08-25T03:25:13;18.80;;;15.97;;
14125;SDS011;7141;49.484;11.242;2022-08-25T03:27:57;18.90;;;16.20;;
14125;SDS011;7141;49.484;11.242;2022-08-25T03:30:24;19.13;;;15.87;;
14125;SDS011;7141;49.484;11.242;2022-08-25T03:32:50;21.90;;;17.00;;
14125;SDS011;7141;49.484;11.242;2022-08-25T03:35:16;19.33;;;15.87;;
14125;SDS011;7141;49.484;11.242;2022-08-25T03:37:43;20.10;;;16.80;;
14125;SDS011;7141;49.484;11.242;2022-08-25T03:40:10;18.13;;;15.97;;
14125;SDS011;7141;49.484;11.242;2022-08-25T03:42:43;19.83;;;16.20;;
14125;SDS011;7141;49.484;11.242;2022-08-25T03:45:09;22.23;;;17.00;;
14125;SDS011;7141;49.484;11.242;2022-08-25T03:47:36;20.30;;;17.43;;
14125;SDS011;7141;49.484;11.242;2022-08-25T03:50:03;19.70;;;17.50;;
14125;SDS011;7141;49.484;11.242;2022-08-25T03:52:29;19.63;;;17.53;;
14125;SDS011;7141;49.484;11.242;2022-08-25T03:54:55;21.53;;;18.37;;
14125;SDS011;7141;49.484;11.242;2022-08-25T03:57:21;20.30;;;17.93;;
14125;SDS011;7141;49.484;11.242;2022-08-25T03:59:47;20.33;;;18.03;;
14125;SDS011;7141;49.484;11.242;2022-08-25T04:02:13;22.40;;;18.33;;
14125;SDS011;7141;49.484;11.242;2022-08-25T04:04:39;20.50;;;17.23;;
14125;SDS011;7141;49.484;11.242;2022-08-25T04:07:05;19.37;;;17.13;;
14125;SDS011;7141;49.484;11.242;2022-08-25T04:09:31;19.13;;;17.10;;
14125;SDS011;7141;49.484;11.242;2022-08-25T04:11:57;24.27;;;17.57;;
14125;SDS011;7141;49.484;11.242;2022-08-25T04:14:23;20.93;;;17.33;;
14125;SDS011;7141;49.484;11.242;2022-08-25T04:16:49;20.93;;;18.10;;
14125;SDS011;7141;49.484;11.242;2022-08-25T04:19:16;21.70;;;17.10;;
14125;SDS011;7141;49.484;11.242;2022-08-25T04:21:43;20.93;;;17.23;;
14125;SDS011;7141;49.484;11.242;2022-08-25T04:24:10;22.30;;;18.07;;
14125;SDS011;7141;49.484;11.242;2022-08-25T04:26:38;23.27;;;18.00;;
14125;SDS011;7141;49.484;11.242;2022-08-25T04:29:05;20.97;;;17.97;;
14125;SDS011;7141;49.484;11.242;2022-08-25T04:31:33;24.30;;;17.87;;
14125;SDS011;7141;49.484;11.242;2022-08-25T04:34:02;22.20;;;18.57;;
14125;SDS011;7141;49.484;11.242;2022-08-25T04:36:28;20.47;;;18.37;;
14125;SDS011;7141;49.484;11.242;2022-08-25T04:38:54;21.23;;;18.70;;
14125;SDS011;7141;49.484;11.242;2022-08-25T04:41:21;20.93;;;18.47;;
14125;SDS011;7141;49.484;11.242;2022-08-25T04:43:48;24.27;;;19.33;;
14125;SDS011;7141;49.484;11.242;2022-08-25T04:46:18;20.60;;;18.40;;
14125;SDS011;7141;49.484;11.242;2022-08-25T04:48:45;20.70;;;18.57;;
14125;SDS011;7141;49.484;11.242;2022-08-25T04:51:13;24.13;;;17.97;;
14125;SDS011;7141;49.484;11.242;2022-08-25T04:53:39;23.67;;;20.00;;
14125;SDS011;7141;49.484;11.242;2022-08-25T04:56:09;23.77;;;19.53;;
14125;SDS011;7141;49.484;11.242;2022-08-25T04:58:36;21.67;;;17.70;;
14125;SDS011;7141;49.484;11.242;2022-08-25T05:01:06;20.63;;;18.43;;
14125;SDS011;7141;49.484;11.242;2022-08-25T05:03:32;24.73;;;19.27;;
14125;SDS011;7141;49.484;11.242;2022-08-25T05:05:59;22.93;;;19.37;;
14125;SDS011;7141;49.484;11.242;2022-08-25T05:08:25;20.30;;;18.20;;
14125;SDS011;7141;49.484;11.242;2022-08-25T05:10:51;21.97;;;18.57;;
14125;SDS011;7141;49.484;11.242;2022-08-25T05:13:18;19.70;;;17.60;;
14125;SDS011;7141;49.484;11.242;2022-08-25T05:15:50;21.57;;;18.30;;
14125;SDS011;7141;49.484;11.242;2022-08-25T05:18:16;24.00;;;18.13;;
14125;SDS011;7141;49.484;11.242;2022-08-25T05:20:43;22.10;;;17.27;;
14125;SDS011;7141;49.484;11.242;2022-08-25T05:23:09;18.70;;;16.27;;
14125;SDS011;7141;49.484;11.242;2022-08-25T05:25:35;20.10;;;17.10;;
14125;SDS011;7141;49.484;11.242;2022-08-25T05:28:01;20.50;;;16.37;;
14125;SDS011;7141;49.484;11.242;2022-08-25T05:30:28;18.50;;;16.53;;
14125;SDS011;7141;49.484;11.242;2022-08-25T05:32:54;18.70;;;16.13;;
14125;SDS011;7141;49.484;11.242;2022-08-25T05:35:20;23.30;;;16.57;;
14125;SDS011;7141;49.484;11.242;2022-08-25T05:37:46;18.17;;;15.00;;
14125;SDS011;7141;49.484;11.242;2022-08-25T05:40:12;19.60;;;15.53;;
14125;SDS011;7141;49.484;11.242;2022-08-25T05:42:38;18.00;;;14.83;;
14125;SDS011;7141;49.484;11.242;2022-08-25T05:45:05;16.33;;;14.57;;
14125;SDS011;7141;49.484;11.242;2022-08-25T05:47:31;15.93;;;14.23;;
14125;SDS011;7141;49.484;11.242;2022-08-25T05:49:57;19.37;;;16.10;;
14125;SDS011;7141;49.484;11.242;2022-08-25T05:52:25;19.67;;;15.80;;
14125;SDS011;7141;49.484;11.242;2022-08-25T05:54:51;17.53;;;15.47;;
14125;SDS011;7141;49.484;11.242;2022-08-25T05:57:18;17.83;;;15.13;;
14125;SDS011;7141;49.484;11.242;2022-08-25T05:59:44;17.53;;;15.73;;
14125;SDS011;7141;49.484;11.242;2022-08-25T06:02:10;20.33;;;16.47;;
14125;SDS011;7141;49.484;11.242;2022-08-25T06:04:55;17.73;;;15.83;;
14125;SDS011;7141;49.484;11.242;2022-08-25T06:07:22;17.97;;;15.93;;
14125;SDS011;7141;49.484;11.242;2022-08-25T06:09:48;17.83;;;16.03;;
14125;SDS011;7141;49.484;11.242;2022-08-25T06:12:15;18.73;;;16.27;;
14125;SDS011;7141;49.484;11.242;2022-08-25T06:14:41;21.77;;;16.83;;
14125;SDS011;7141;49.484;11.242;2022-08-25T06:17:07;18.73;;;16.77;;
14125;SDS011;7141;49.484;11.242;2022-08-25T06:19:33;19.60;;;15.77;;
14125;SDS011;7141;49.484;11.242;2022-08-25T06:21:59;20.40;;;16.93;;
14125;SDS011;7141;49.484;11.242;2022-08-25T06:24:26;18.03;;;15.93;;
14125;SDS011;7141;49.484;11.242;2022-08-25T06:26:52;19.13;;;16.63;;
14125;SDS011;7141;49.484;11.242;2022-08-25T06:29:18;19.00;;;15.47;;
14125;SDS011;7141;49.484;11.242;2022-08-25T06:31:45;22.67;;;16.60;;
14125;SDS011;7141;49.484;11.242;2022-08-25T06:34:13;23.07;;;17.30;;
14125;SDS011;7141;49.484;11.242;2022-08-25T06:36:39;18.37;;;15.50;;
14125;SDS011;7141;49.484;11.242;2022-08-25T06:39:05;20.03;;;16.83;;
14125;SDS011;7141;49.484;11.242;2022-08-25T06:41:31;21.73;;;16.70;;
14125;SDS011;7141;49.484;11.242;2022-08-25T06:43:57;19.70;;;15.93;;
14125;SDS011;7141;49.484;11.242;2022-08-25T06:46:25;18.83;;;15.87;;
14125;SDS011;7141;49.484;11.242;2022-08-25T06:48:51;17.53;;;15.73;;
14125;SDS011;7141;49.484;11.242;2022-08-25T06:51:18;17.83;;;15.93;;
14125;SDS011;7141;49.484;11.242;2022-08-25T06:53:45;18.00;;;16.17;;
14125;SDS011;7141;49.484;11.242;2022-08-25T06:56:13;19.20;;;15.97;;
14125;SDS011;7141;49.484;11.242;2022-08-25T06:58:39;20.53;;;16.23;;
14125;SDS011;7141;49.484;11.242;2022-08-25T07:01:07;16.60;;;15.00;;
14125;SDS011;7141;49.484;11.242;2022-08-25T07:03:33;18.00;;;14.17;;
14125;SDS011;7141;49.484;11.242;2022-08-25T07:05:59;20.33;;;15.17;;
14125;SDS011;7141;49.484;11.242;2022-08-25T07:08:25;17.77;;;15.20;;
14125;SDS011;7141;49.484;11.242;2022-08-25T07:10:51;18.00;;;15.00;;
14125;SDS011;7141;49.484;11.242;2022-08-25T07:13:17;18.90;;;15.90;;
14125;SDS011;7141;49.484;11.242;2022-08-25T07:15:43;18.93;;;14.23;;
14125;SDS011;7141;49.484;11.242;2022-08-25T07:18:10;15.83;;;14.17;;
14125;SDS011;7141;49.484;11.242;2022-08-25T07:20:36;16.70;;;14.80;;
14125;SDS011;7141;49.484;11.242;2022-08-25T07:23:02;17.87;;;15.07;;
14125;SDS011;7141;49.484;11.242;2022-08-25T07:25:28;19.27;;;14.80;;
14125;SDS011;7141;49.484;11.242;2022-08-25T07:27:54;15.40;;;13.90;;
14125;SDS011;7141;49.484;11.242;2022-08-25T07:30:21;18.17;;;14.00;;
14125;SDS011;7141;49.484;11.242;2022-08-25T07:32:47;16.13;;;14.33;;
14125;SDS011;7141;49.484;11.242;2022-08-25T07:35:13;16.53;;;13.83;;
14125;SDS011;7141;49.484;11.242;2022-08-25T07:37:40;15.13;;;13.47;;
14125;SDS011;7141;49.484;11.242;2022-08-25T07:40:07;15.93;;;14.00;;
14125;SDS011;7141;49.484;11.242;2022-08-25T07:42:33;15.47;;;13.20;;
14125;SDS011;7141;49.484;11.242;2022-08-25T07:45:00;14.50;;;13.00;;
14125;SDS011;7141;49.484;11.242;2022-08-25T07:47:25;15.77;;;13.73;;
14125;SDS011;7141;49.484;11.242;2022-08-25T07:49:51;14.63;;;13.13;;
14125;SDS011;7141;49.484;11.242;2022-08-25T07:52:17;20.37;;;13.17;;
14125;SDS011;7141;49.484;11.242;2022-08-25T07:54:44;15.13;;;13.63;;
14125;SDS011;7141;49.484;11.242;2022-08-25T07:57:10;16.57;;;13.47;;
14125;SDS011;7141;49.484;11.242;2022-08-25T07:59:42;15.47;;;13.87;;
14125;SDS011;7141;49.484;11.242;2022-08-25T08:02:08;17.97;;;14.23;;
14125;SDS011;7141;49.484;11.242;2022-08-25T08:04:35;15.17;;;13.57;;
14125;SDS011;7141;49.484;11.242;2022-08-25T08:07:01;14.00;;;12.40;;
14125;SDS011;7141;49.484;11.242;2022-08-25T08:09:27;13.77;;;12.37;;
14125;SDS011;7141;49.484;11.242;2022-08-25T08:11:55;13.90;;;12.37;;
14125;SDS011;7141;49.484;11.242;2022-08-25T08:14:21;13.70;;;12.30;;
14125;SDS011;7141;49.484;11.242;2022-08-25T08:16:47;13.70;;;12.30;;
14125;SDS011;7141;49.484;11.242;2022-08-25T08:19:14;14.60;;;12.00;;
14125;SDS011;7141;49.484;11.242;2022-08-25T08:21:40;16.67;;;13.13;;
14125;SDS011;7141;49.484;11.242;2022-08-25T08:24:06;14.00;;;12.50;;
14125;SDS011;7141;49.484;11.242;2022-08-25T08:26:32;13.50;;;12.10;;
14125;SDS011;7141;49.484;11.242;2022-08-25T08:28:59;14.60;;;12.63;;
14125;SDS011;7141;49.484;11.242;2022-08-25T08:31:25;15.57;;;12.67;;
14125;SDS011;7141;49.484;11.242;2022-08-25T08:33:52;13.50;;;12.20;;
14125;SDS011;7141;49.484;11.242;2022-08-25T08:36:19;12.57;;;11.27;;
14125;SDS011;7141;49.484;11.242;2022-08-25T08:38:46;15.40;;;11.63;;
14125;SDS011;7141;49.484;11.242;2022-08-25T08:44:12;13.43;;;12.03;;
14125;SDS011;7141;49.484;11.242;2022-08-25T08:49:27;12.57;;;11.37;;
14125;SDS011;7141;49.484;11.242;2022-08-25T08:51:58;12.47;;;10.50;;
14125;SDS011;7141;49.484;11.242;2022-08-25T08:54:25;15.30;;;11.80;;
14125;SDS011;7141;49.484;11.242;2022-08-25T08:56:55;13.13;;;11.10;;
14125;SDS011;7141;49.484;11.242;2022-08-25T08:59:23;14.67;;;11.83;;
14125;SDS011;7141;49.484;11.242;2022-08-25T09:01:51;16.07;;;11.37;;
14125;SDS011;7141;49.484;11.242;2022-08-25T09:06:55;15.67;;;12.00;;
14125;SDS011;7141;49.484;11.242;2022-08-25T09:09:25;13.33;;;11.57;;
14125;SDS011;7141;49.484;11.242;2022-08-25T09:17:18;12.77;;;11.37;;
14125;SDS011;7141;49.484;11.242;2022-08-25T09:30:09;12.57;;;10.83;;
14125;SDS011;7141;49.484;11.242;2022-08-25T09:32:38;13.47;;;11.20;;
14125;SDS011;7141;49.484;11.242;2022-08-25T09:35:05;13.80;;;11.17;;
14125;SDS011;7141;49.484;11.242;2022-08-25T09:37:32;11.60;;;9.53;;
14125;SDS011;7141;49.484;11.242;2022-08-25T09:39:58;11.97;;;10.47;;
14125;SDS011;7141;49.484;11.242;2022-08-25T09:42:47;11.50;;;10.20;;
14125;SDS011;7141;49.484;11.242;2022-08-25T09:45:12;11.63;;;10.43;;
14125;SDS011;7141;49.484;11.242;2022-08-25T09:47:42;11.43;;;10.13;;
14125;SDS011;7141;49.484;11.242;2022-08-25T09:50:13;12.30;;;10.03;;
14125;SDS011;7141;49.484;11.242;2022-08-25T09:52:40;12.73;;;10.47;;
14125;SDS011;7141;49.484;11.242;2022-08-25T10:02:40;11.37;;;9.80;;
14125;SDS011;7141;49.484;11.242;2022-08-25T10:05:23;10.33;;;9.23;;
14125;SDS011;7141;49.484;11.242;2022-08-25T10:07:55;10.57;;;9.53;;
14125;SDS011;7141;49.484;11.242;2022-08-25T10:10:24;10.67;;;9.40;;
14125;SDS011;7141;49.484;11.242;2022-08-25T10:12:52;11.73;;;9.90;;
14125;SDS011;7141;49.484;11.242;2022-08-25T10:15:20;10.88;;;9.77;;
14125;SDS011;7141;49.484;11.242;2022-08-25T10:17:47;12.63;;;10.07;;
14125;SDS011;7141;49.484;11.242;2022-08-25T10:20:17;14.15;;;10.10;;
14125;SDS011;7141;49.484;11.242;2022-08-25T10:22:44;10.48;;;9.38;;
14125;SDS011;7141;49.484;11.242;2022-08-25T10:25:11;10.85;;;9.85;;
14125;SDS011;7141;49.484;11.242;2022-08-25T10:30:09;10.75;;;9.40;;
14125;SDS011;7141;49.484;11.242;2022-08-25T10:35:08;10.50;;;9.48;;
14125;SDS011;7141;49.484;11.242;2022-08-25T10:37:40;11.27;;;10.00;;
14125;SDS011;7141;49.484;11.242;2022-08-25T10:42:52;10.88;;;9.35;;
14125;SDS011;7141;49.484;11.242;2022-08-25T10:45:22;13.60;;;9.93;;
14125;SDS011;7141;49.484;11.242;2022-08-25T10:53:22;10.88;;;9.77;;
14125;SDS011;7141;49.484;11.242;2022-08-25T11:03:49;11.00;;;9.85;;
14125;SDS011;7141;49.484;11.242;2022-08-25T11:06:22;11.85;;;9.20;;
14125;SDS011;7141;49.484;11.242;2022-08-25T11:08:52;10.82;;;9.73;;
14125;SDS011;7141;49.484;11.242;2022-08-25T11:11:27;11.77;;;10.63;;
14125;SDS011;7141;49.484;11.242;2022-08-25T11:13:57;15.18;;;9.80;;
14125;SDS011;7141;49.484;11.242;2022-08-25T11:19:05;11.25;;;9.20;;
14125;SDS011;7141;49.484;11.242;2022-08-25T11:21:39;11.15;;;10.07;;
14125;SDS011;7141;49.484;11.242;2022-08-25T11:27:14;10.77;;;9.00;;
14125;SDS011;7141;49.484;11.242;2022-08-25T11:29:42;10.40;;;9.40;;
14125;SDS011;7141;49.484;11.242;2022-08-25T11:32:11;9.13;;;8.05;;
14125;SDS011;7141;49.484;11.242;2022-08-25T11:34:38;9.35;;;8.35;;
14125;SDS011;7141;49.484;11.242;2022-08-25T11:37:06;10.20;;;8.18;;
14125;SDS011;7141;49.484;11.242;2022-08-25T11:50:01;9.65;;;7.55;;
14125;SDS011;7141;49.484;11.242;2022-08-25T11:55:04;8.70;;;7.65;;
14125;SDS011;7141;49.484;11.242;2022-08-25T11:57:31;9.48;;;8.20;;
14125;SDS011;7141;49.484;11.242;2022-08-25T12:00:00;9.70;;;8.00;;
14125;SDS011;7141;49.484;11.242;2022-08-25T12:02:34;8.85;;;7.55;;
14125;SDS011;7141;49.484;11.242;2022-08-25T12:05:01;9.80;;;7.63;;
14125;SDS011;7141;49.484;11.242;2022-08-25T12:07:28;9.43;;;8.43;;
14125;SDS011;7141;49.484;11.242;2022-08-25T12:15:12;8.45;;;7.65;;
14125;SDS011;7141;49.484;11.242;2022-08-25T12:17:38;9.48;;;8.55;;
14125;SDS011;7141;49.484;11.242;2022-08-25T12:20:04;11.68;;;8.57;;
14125;SDS011;7141;49.484;11.242;2022-08-25T12:25:00;13.20;;;7.90;;
14125;SDS011;7141;49.484;11.242;2022-08-25T12:30:31;8.80;;;7.82;;
14125;SDS011;7141;49.484;11.242;2022-08-25T12:38:15;9.00;;;7.97;;
14125;SDS011;7141;49.484;11.242;2022-08-25T12:43:10;12.93;;;8.30;;
14125;SDS011;7141;49.484;11.242;2022-08-25T12:45:39;9.48;;;7.93;;
14125;SDS011;7141;49.484;11.242;2022-08-25T12:48:52;8.57;;;7.65;;
14125;SDS011;7141;49.484;11.242;2022-08-25T12:51:05;11.43;;;7.70;;
14125;SDS011;7141;49.484;11.242;2022-08-25T12:53:40;9.40;;;8.20;;
14125;SDS011;7141;49.484;11.242;2022-08-25T12:56:09;9.57;;;7.65;;
14125;SDS011;7141;49.484;11.242;2022-08-25T12:58:55;8.90;;;8.07;;
14125;SDS011;7141;49.484;11.242;2022-08-25T13:04:02;10.80;;;7.68;;
14125;SDS011;7141;49.484;11.242;2022-08-25T13:10:06;8.90;;;7.75;;
14125;SDS011;7141;49.484;11.242;2022-08-25T13:12:18;7.97;;;7.18;;
14125;SDS011;7141;49.484;11.242;2022-08-25T13:14:53;9.25;;;7.15;;
14125;SDS011;7141;49.484;11.242;2022-08-25T13:17:24;7.72;;;6.13;;
14125;SDS011;7141;49.484;11.242;2022-08-25T13:19:50;8.48;;;6.80;;
14125;SDS011;7141;49.484;11.242;2022-08-25T13:22:16;7.07;;;6.35;;
14125;SDS011;7141;49.484;11.242;2022-08-25T13:24:45;7.35;;;5.88;;
14125;SDS011;7141;49.484;11.242;2022-08-25T13:27:24;6.95;;;6.15;;
14125;SDS011;7141;49.484;11.242;2022-08-25T13:29:52;10.77;;;6.72;;
14125;SDS011;7141;49.484;11.242;2022-08-25T13:32:26;7.28;;;6.53;;
14125;SDS011;7141;49.484;11.242;2022-08-25T13:34:58;9.02;;;6.45;;
14125;SDS011;7141;49.484;11.242;2022-08-25T13:37:31;7.65;;;6.95;;
14125;SDS011;7141;49.484;11.242;2022-08-25T13:42:33;7.68;;;6.50;;
14125;SDS011;7141;49.484;11.242;2022-08-25T13:45:00;10.45;;;6.72;;
14125;SDS011;7141;49.484;11.242;2022-08-25T13:47:36;9.00;;;6.20;;
14125;SDS011;7141;49.484;11.242;2022-08-25T13:52:48;9.23;;;6.65;;
14125;SDS011;7141;49.484;11.242;2022-08-25T13:55:19;6.60;;;5.75;;
14125;SDS011;7141;49.484;11.242;2022-08-25T13:57:45;9.45;;;5.90;;
14125;SDS011;7141;49.484;11.242;2022-08-25T14:00:12;9.57;;;6.75;;
14125;SDS011;7141;49.484;11.242;2022-08-25T14:05:04;7.22;;;5.68;;
14125;SDS011;7141;49.484;11.242;2022-08-25T14:07:30;8.55;;;5.80;;
14125;SDS011;7141;49.484;11.242;2022-08-25T14:17:34;7.85;;;6.05;;
14125;SDS011;7141;49.484;11.242;2022-08-25T14:20:02;8.20;;;6.53;;
14125;SDS011;7141;49.484;11.242;2022-08-25T14:22:28;9.40;;;6.20;;
14125;SDS011;7141;49.484;11.242;2022-08-25T14:24:54;9.07;;;6.60;;
14125;SDS011;7141;49.484;11.242;2022-08-25T14:27:21;8.75;;;6.20;;
14125;SDS011;7141;49.484;11.242;2022-08-25T14:29:47;8.10;;;6.22;;
14125;SDS011;7141;49.484;11.242;2022-08-25T14:32:14;8.07;;;7.05;;
14125;SDS011;7141;49.484;11.242;2022-08-25T14:34:41;8.15;;;6.30;;
14125;SDS011;7141;49.484;11.242;2022-08-25T14:37:08;7.85;;;6.22;;
14125;SDS011;7141;49.484;11.242;2022-08-25T14:39:36;9.98;;;5.95;;
14125;SDS011;7141;49.484;11.242;2022-08-25T14:42:02;7.32;;;6.63;;
14125;SDS011;7141;49.484;11.242;2022-08-25T14:44:29;11.95;;;6.53;;
14125;SDS011;7141;49.484;11.242;2022-08-25T14:46:55;11.25;;;5.90;;
14125;SDS011;7141;49.484;11.242;2022-08-25T14:49:25;8.68;;;6.13;;
14125;SDS011;7141;49.484;11.242;2022-08-25T14:51:54;8.07;;;5.97;;
14125;SDS011;7141;49.484;11.242;2022-08-25T14:54:21;9.65;;;6.35;;
14125;SDS011;7141;49.484;11.242;2022-08-25T14:56:48;9.52;;;6.45;;
14125;SDS011;7141;49.484;11.242;2022-08-25T14:59:14;6.88;;;6.25;;
14125;SDS011;7141;49.484;11.242;2022-08-25T15:01:41;8.13;;;6.63;;
14125;SDS011;7141;49.484;11.242;2022-08-25T15:04:09;8.20;;;6.25;;
14125;SDS011;7141;49.484;11.242;2022-08-25T15:06:36;7.13;;;6.32;;
14125;SDS011;7141;49.484;11.242;2022-08-25T15:09:04;7.43;;;6.57;;
14125;SDS011;7141;49.484;11.242;2022-08-25T15:11:35;10.50;;;7.22;;
14125;SDS011;7141;49.484;11.242;2022-08-25T15:14:01;7.05;;;6.03;;
14125;SDS011;7141;49.484;11.242;2022-08-25T15:16:37;12.00;;;6.78;;
14125;SDS011;7141;49.484;11.242;2022-08-25T15:19:04;8.40;;;6.72;;
14125;SDS011;7141;49.484;11.242;2022-08-25T15:21:31;6.72;;;5.85;;
14125;SDS011;7141;49.484;11.242;2022-08-25T15:23:57;9.18;;;6.00;;
14125;SDS011;7141;49.484;11.242;2022-08-25T15:26:24;9.75;;;6.05;;
14125;SDS011;7141;49.484;11.242;2022-08-25T15:28:50;12.07;;;6.72;;
14125;SDS011;7141;49.484;11.242;2022-08-25T15:31:17;9.95;;;6.22;;
14125;SDS011;7141;49.484;11.242;2022-08-25T15:33:44;8.65;;;6.15;;
14125;SDS011;7141;49.484;11.242;2022-08-25T15:36:11;8.50;;;5.80;;
14125;SDS011;7141;49.484;11.242;2022-08-25T15:38:38;8.38;;;5.47;;
14125;SDS011;7141;49.484;11.242;2022-08-25T15:41:06;8.13;;;5.80;;
14125;SDS011;7141;49.484;11.242;2022-08-25T15:43:32;12.52;;;6.43;;
14125;SDS011;7141;49.484;11.242;2022-08-25T15:45:58;9.88;;;6.38;;
14125;SDS011;7141;49.484;11.242;2022-08-25T15:48:24;8.05;;;5.82;;
14125;SDS011;7141;49.484;11.242;2022-08-25T15:50:54;8.68;;;5.93;;
14125;SDS011;7141;49.484;11.242;2022-08-25T15:53:22;12.10;;;6.00;;
14125;SDS011;7141;49.484;11.242;2022-08-25T15:55:50;9.05;;;5.70;;
14125;SDS011;7141;49.484;11.242;2022-08-25T15:58:16;9.27;;;5.95;;
14125;SDS011;7141;49.484;11.242;2022-08-25T16:00:43;7.78;;;6.47;;
14125;SDS011;7141;49.484;11.242;2022-08-25T16:03:09;11.40;;;6.25;;
14125;SDS011;7141;49.484;11.242;2022-08-25T16:05:35;7.90;;;5.93;;
14125;SDS011;7141;49.484;11.242;2022-08-25T16:08:02;6.28;;;5.40;;
14125;SDS011;7141;49.484;11.242;2022-08-25T16:10:31;8.35;;;5.97;;
14125;SDS011;7141;49.484;11.242;2022-08-25T16:12:57;10.20;;;6.38;;
14125;SDS011;7141;49.484;11.242;2022-08-25T16:15:23;13.50;;;5.47;;
14125;SDS011;7141;49.484;11.242;2022-08-25T16:17:49;9.57;;;6.30;;
14125;SDS011;7141;49.484;11.242;2022-08-25T16:20:17;10.07;;;6.40;;
14125;SDS011;7141;49.484;11.242;2022-08-25T16:22:44;10.60;;;6.70;;
14125;SDS011;7141;49.484;11.242;2022-08-25T16:25:12;9.68;;;6.05;;
14125;SDS011;7141;49.484;11.242;2022-08-25T16:27:38;13.95;;;6.95;;
14125;SDS011;7141;49.484;11.242;2022-08-25T16:30:04;9.38;;;6.18;;
14125;SDS011;7141;49.484;11.242;2022-08-25T16:32:30;12.15;;;6.00;;